Time,TemperatureF,DewpointF,PressureIn,WindDirection,WindDirectionDegrees,WindSpeedMPH,WindSpeedGustMPH,Humidity,HourlyPrecipIn,Conditions,Clouds,dailyrainin,SoftwareType,DateUTC
2013-11-27 00:22:00,31.0,27.0,30.00,ESE,120,5.0,5.0,86,0.00,,,0.00,,2013-11-27 05:22:00,
2013-11-27 00:33:00,31.0,27.0,30.00,ESE,120,5.0,5.0,86,0.00,,,0.00,,2013-11-27 05:33:00,
2013-11-27 00:53:00,31.0,27.0,29.99,NNW,340,4.0,4.0,85,0.00,,,0.00,,2013-11-27 05:53:00,
2013-11-27 01:22:00,31.0,28.0,29.99,North,359,7.0,7.0,90,0.00,,,0.00,,2013-11-27 06:22:00,
2013-11-27 01:52:00,30.0,28.0,29.99,NNW,339,5.0,5.0,93,0.00,,,0.00,,2013-11-27 06:52:00,
2013-11-27 02:22:00,29.0,27.0,29.99,WNW,288,5.0,5.0,93,0.00,,,0.00,,2013-11-27 07:22:00,
2013-11-27 02:52:00,28.0,26.0,30.00,NW,308,4.0,9.0,92,0.00,,,0.00,,2013-11-27 07:52:00,
2013-11-27 03:02:00,28.0,26.0,30.00,NW,308,4.0,9.0,92,0.00,,,0.00,,2013-11-27 08:02:00,
2013-11-27 03:21:00,28.0,27.0,30.01,NW,319,3.0,3.0,94,0.00,,,0.00,,2013-11-27 08:21:00,
2013-11-27 03:52:00,27.0,26.0,30.01,NNE,30,7.0,7.0,95,0.00,,,0.00,,2013-11-27 08:52:00,
2013-11-27 04:22:00,27.0,26.0,30.01,NNW,342,6.0,6.0,94,0.00,,,0.00,,2013-11-27 09:22:00,
2013-11-27 04:54:00,26.0,24.0,30.02,NW,321,7.0,7.0,91,0.00,,,0.00,,2013-11-27 09:54:00,
2013-11-27 05:23:00,25.0,22.0,30.03,NNW,328,4.0,4.0,89,0.00,,,0.00,,2013-11-27 10:23:00,
2013-11-27 05:52:00,24.0,21.0,30.04,NW,304,5.0,5.0,87,0.00,,,0.00,,2013-11-27 10:52:00,
2013-11-27 06:22:00,24.0,20.0,30.06,NNW,342,1.0,6.0,85,0.00,,,0.00,,2013-11-27 11:22:00,
2013-11-27 06:53:00,22.0,18.0,30.06,NW,325,3.0,6.0,85,0.00,,,0.00,,2013-11-27 11:53:00,
2013-11-27 07:21:00,21.0,17.0,30.08,WNW,287,4.0,4.0,85,0.00,,,0.00,,2013-11-27 12:21:00,
2013-11-27 07:52:00,19.0,16.0,30.09,NW,318,6.0,7.0,86,0.00,,,0.00,,2013-11-27 12:52:00,
2013-11-27 08:22:00,18.0,15.0,30.10,NW,318,3.0,4.0,89,0.00,,,0.00,,2013-11-27 13:22:00,
2013-11-27 08:52:00,17.0,14.0,30.11,NW,322,7.0,7.0,89,0.00,,,0.00,,2013-11-27 13:52:00,
2013-11-27 09:22:00,18.0,16.0,30.12,NNW,342,6.0,6.0,90,0.00,,,0.00,,2013-11-27 14:22:00,
2013-11-27 09:53:00,18.0,16.0,30.13,North,357,4.0,5.0,92,0.00,,,0.00,,2013-11-27 14:53:00,
2013-11-27 10:22:00,19.0,17.0,30.13,NNW,338,6.0,6.0,91,0.00,,,0.00,,2013-11-27 15:22:00,
2013-11-27 10:53:00,20.0,17.0,30.14,NW,309,6.0,8.0,89,0.00,,,0.00,,2013-11-27 15:53:00,
2013-11-27 11:24:00,20.0,17.0,30.14,NNW,336,6.0,9.0,88,0.00,,,0.00,,2013-11-27 16:24:00,
2013-11-27 11:53:00,21.0,18.0,30.14,NNW,338,7.0,7.0,88,0.00,,,0.00,,2013-11-27 16:53:00,
2013-11-27 12:22:00,22.0,19.0,30.14,WNW,294,6.0,6.0,88,0.00,,,0.00,,2013-11-27 17:22:00,
2013-11-27 12:52:00,22.0,20.0,30.14,West,277,6.0,6.0,91,0.00,,,0.00,,2013-11-27 17:52:00,
2013-11-27 13:02:00,22.0,20.0,30.14,West,277,6.0,6.0,91,0.00,,,0.00,,2013-11-27 18:02:00,
2013-11-27 13:22:00,22.0,19.0,30.14,WNW,284,7.0,9.0,87,0.00,,,0.00,,2013-11-27 18:22:00,
2013-11-27 13:52:00,25.0,19.0,30.14,NW,325,5.0,5.0,79,0.00,,,0.00,,2013-11-27 18:52:00,
2013-11-27 14:21:00,25.0,19.0,30.13,NW,314,3.0,7.0,76,0.00,,,0.00,,2013-11-27 19:21:00,
2013-11-27 14:52:00,26.0,18.0,30.14,NW,318,7.0,7.0,72,0.00,,,0.00,,2013-11-27 19:52:00,
2013-11-27 15:22:00,26.0,18.0,30.15,WNW,285,7.0,7.0,71,0.00,,,0.00,,2013-11-27 20:22:00,
2013-11-27 15:52:00,26.0,16.0,30.15,WNW,283,8.0,9.0,66,0.00,,,0.00,,2013-11-27 20:52:00,
2013-11-27 16:22:00,27.0,16.0,30.16,NNW,345,6.0,6.0,63,0.00,,,0.00,,2013-11-27 21:22:00,
2013-11-27 16:53:00,26.0,16.0,30.18,NNW,335,4.0,4.0,65,0.00,,,0.00,,2013-11-27 21:53:00,
2013-11-27 17:23:00,25.0,16.0,30.19,NW,319,1.0,0.0,67,0.00,,,0.00,,2013-11-27 22:23:00,
2013-11-27 17:52:00,24.0,16.0,30.21,NW,314,0.0,0.0,70,0.00,,,0.00,,2013-11-27 22:52:00,
2013-11-27 18:22:00,24.0,17.0,30.21,NW,305,0.0,0.0,75,0.00,,,0.00,,2013-11-27 23:22:00,
2013-11-27 18:53:00,22.0,16.0,30.21,NW,305,0.0,0.0,77,0.00,,,0.00,,2013-11-27 23:53:00,
2013-11-27 19:22:00,21.0,16.0,30.20,NW,305,0.0,0.0,79,0.00,,,0.00,,2013-11-28 00:22:00,
2013-11-27 19:32:00,21.0,16.0,30.20,NW,305,0.0,0.0,79,0.00,,,0.00,,2013-11-28 00:32:00,
2013-11-27 19:52:00,20.0,16.0,30.21,NW,305,0.0,0.0,83,0.00,,,0.00,,2013-11-28 00:52:00,
2013-11-27 20:11:00,20.0,16.0,30.22,NW,305,0.0,0.0,84,0.00,,,0.00,,2013-11-28 01:11:00,
2013-11-27 20:22:00,20.0,16.0,30.22,NW,305,0.0,0.0,84,0.00,,,0.00,,2013-11-28 01:22:00,
2013-11-27 20:42:00,20.0,16.0,30.22,NW,318,0.0,0.0,83,0.00,,,0.00,,2013-11-28 01:42:00,
2013-11-27 20:52:00,20.0,16.0,30.22,NW,318,0.0,0.0,83,0.00,,,0.00,,2013-11-28 01:52:00,
2013-11-27 21:21:00,19.0,15.0,30.23,NW,318,0.0,0.0,85,0.00,,,0.00,,2013-11-28 02:21:00,
2013-11-27 22:21:00,19.0,16.0,30.24,NW,318,0.0,0.0,86,0.00,,,0.00,,2013-11-28 03:21:00,
2013-11-27 22:53:00,18.0,15.0,30.25,NW,318,0.0,0.0,88,0.00,,,0.00,,2013-11-28 03:53:00,
2013-11-27 23:23:00,18.0,15.0,30.26,NW,318,0.0,0.0,88,0.00,,,0.00,,2013-11-28 04:23:00,
2013-11-27 23:52:00,18.0,15.0,30.26,NW,318,0.0,0.0,88,0.00,,,0.00,,2013-11-28 04:52:00,